Disputanta, Virginia
Current Conditions -  °F | °C
As of 7:54 AM on Tuesday 21 Oct 2014 (Local Time) from KAKQ Reporting Station
Overcast Overcast  
Wind Chill: 56°   Ceiling: 12000
Heat Index: 56°   Visibility: 10mi
Dew Point: 53°   Wind: 3mph
Humidity: 90%   Direction: 180°S
Pressure: 29.91"   Gusts: NA
Location:  37.12°N, 77.23°W
Report Text: KAKQ 211154Z AUTO 18003KT 10SM OVC120 13/12 A2991 RMK AO2 SLP127 60000 7//// T01330117 10139 20122 53005 TSNO
Loading
Personal Weather Stations






























Interactive Weather Map
Tropical Storm Tracking
New forecast layout! Learn more

10-Day Weather Forecast

Advertisements
Track Severe Weather on mobile